Time;durP1;ratioP1;P1;durP2;ratioP2;P2;SDS_P1;SDS_P2;PMS_P1;PMS_P2;Temp;Humidity;BMP_temperature;BMP_pressure;BME280_temperature;BME280_humidity;BME280_pressure;Samples;Min_cycle;Max_cycle;Signal;HPM_P1;HPM_P2
2023/12/02 00:01:48;;;;;;;34.70;13.32;;;0.50;99.90;;;;;;4969467;28;20739;-63
2023/12/02 00:04:14;;;;;;;42.35;14.88;;;0.50;99.90;;;;;;4969339;28;20038;-66
2023/12/02 00:06:40;;;;;;;38.17;14.43;;;0.40;99.90;;;;;;4952237;28;20031;-65
2023/12/02 00:09:05;;;;;;;50.22;16.83;;;0.40;99.90;;;;;;4969798;28;20035;-64
2023/12/02 00:11:31;;;;;;;42.22;15.38;;;0.30;99.90;;;;;;4968812;28;20591;-64
2023/12/02 00:13:56;;;;;;;32.70;13.88;;;0.30;99.90;;;;;;4969428;28;20026;-63
2023/12/02 00:16:22;;;;;;;37.38;14.68;;;0.30;99.90;;;;;;4969015;28;20030;-64
2023/12/02 00:18:48;;;;;;;32.13;13.27;;;0.30;99.90;;;;;;4969709;28;20058;-63
2023/12/02 00:21:13;;;;;;;35.80;14.43;;;0.20;99.90;;;;;;4968716;28;20053;-66
2023/12/02 00:23:39;;;;;;;40.03;14.32;;;0.20;99.90;;;;;;4969393;28;20047;-63
2023/12/02 00:26:04;;;;;;;36.08;14.23;;;0.20;99.90;;;;;;4978077;28;20055;-63
2023/12/02 00:28:30;;;;;;;50.40;16.83;;;0.20;99.90;;;;;;4972519;28;20027;-63
2023/12/02 00:30:56;;;;;;;42.08;15.85;;;0.20;99.90;;;;;;4969478;28;20077;-63
2023/12/02 00:33:21;;;;;;;39.90;14.98;;;0.10;99.90;;;;;;4968841;28;20093;-63
2023/12/02 00:35:47;;;;;;;37.60;15.23;;;0.10;99.90;;;;;;4969603;28;20035;-63
2023/12/02 00:38:12;;;;;;;43.33;14.88;;;0.10;99.90;;;;;;4969390;28;20035;-64
2023/12/02 00:40:38;;;;;;;38.72;15.45;;;0.10;99.90;;;;;;4968648;28;20096;-63
2023/12/02 00:43:04;;;;;;;44.65;16.30;;;0.10;99.90;;;;;;4969354;28;20047;-62
2023/12/02 00:45:29;;;;;;;36.58;14.35;;;0.20;99.90;;;;;;4968825;28;20154;-63
2023/12/02 00:47:55;;;;;;;34.78;14.13;;;0.10;99.90;;;;;;4969667;28;20027;-62
2023/12/02 00:50:21;;;;;;;38.35;14.57;;;0.10;99.90;;;;;;4968367;28;20034;-62
2023/12/02 00:52:47;;;;;;;38.05;14.75;;;0.10;99.90;;;;;;4969431;28;20062;-63
2023/12/02 00:55:12;;;;;;;35.30;14.05;;;0.00;99.90;;;;;;4970410;28;20514;-62
2023/12/02 00:57:38;;;;;;;35.90;13.25;;;-0.10;99.90;;;;;;4976036;28;20042;-62
2023/12/02 01:00:04;;;;;;;40.03;14.77;;;-0.10;99.90;;;;;;4970013;28;20031;-63
2023/12/02 01:02:30;;;;;;;35.53;13.88;;;-0.10;99.90;;;;;;4968153;28;20097;-62
2023/12/02 01:04:56;;;;;;;36.85;13.18;;;-0.10;99.90;;;;;;4968583;28;20395;-62
2023/12/02 01:07:21;;;;;;;33.53;13.63;;;-0.10;99.90;;;;;;4968516;28;20030;-62
2023/12/02 01:09:47;;;;;;;39.92;13.85;;;-0.10;99.90;;;;;;4971634;28;20023;-62
2023/12/02 01:12:12;;;;;;;35.28;13.52;;;-0.10;99.90;;;;;;4972391;28;20499;-62
2023/12/02 01:14:38;;;;;;;35.60;13.23;;;-0.10;99.90;;;;;;4972111;28;20026;-62
2023/12/02 01:17:04;;;;;;;36.20;14.50;;;0.00;99.90;;;;;;4972897;28;20472;-62
2023/12/02 01:19:29;;;;;;;41.58;15.45;;;0.00;99.90;;;;;;4971598;28;20022;-62
2023/12/02 01:21:55;;;;;;;40.05;14.35;;;0.00;99.90;;;;;;4972728;28;20031;-62
2023/12/02 01:24:21;;;;;;;40.22;15.18;;;0.00;99.90;;;;;;4972663;28;20038;-63
2023/12/02 01:26:46;;;;;;;39.85;14.85;;;-0.10;99.90;;;;;;4972697;28;20030;-62
2023/12/02 01:29:12;;;;;;;42.20;16.10;;;-0.10;99.90;;;;;;4971852;28;20700;-62
2023/12/02 01:31:38;;;;;;;40.58;14.32;;;-0.10;99.90;;;;;;4971592;28;20063;-62
2023/12/02 01:34:03;;;;;;;41.08;14.85;;;-0.10;99.90;;;;;;4972131;28;20070;-62
2023/12/02 01:36:29;;;;;;;40.05;15.38;;;-0.20;99.90;;;;;;4971830;28;20093;-62
2023/12/02 01:38:54;;;;;;;41.47;15.85;;;-0.20;99.90;;;;;;4972152;28;20033;-62
2023/12/02 01:41:20;;;;;;;41.25;15.40;;;-0.20;99.90;;;;;;4971472;28;20027;-64
2023/12/02 01:43:46;;;;;;;38.40;14.77;;;-0.30;99.90;;;;;;4972032;28;20062;-62
2023/12/02 01:46:15;;;;;;;43.90;15.45;;;-0.20;99.90;;;;;;4972416;28;20035;-63
2023/12/02 01:48:41;;;;;;;39.42;15.27;;;-0.20;99.90;;;;;;4971157;28;20035;-62
2023/12/02 01:51:07;;;;;;;43.42;15.50;;;-0.20;99.90;;;;;;4972008;28;20068;-62
2023/12/02 01:53:33;;;;;;;41.85;15.57;;;-0.20;99.90;;;;;;4971425;28;20094;-62
2023/12/02 01:55:59;;;;;;;45.42;16.88;;;-0.30;99.90;;;;;;4971584;28;20498;-62
2023/12/02 01:58:25;;;;;;;41.03;15.63;;;-0.30;99.90;;;;;;4971568;28;20371;-62
2023/12/02 02:00:50;;;;;;;39.90;14.80;;;-0.30;99.90;;;;;;4971566;28;20042;-63
2023/12/02 02:03:16;;;;;;;43.65;15.77;;;-0.30;99.90;;;;;;4971968;28;20043;-63
2023/12/02 02:05:44;;;;;;;43.25;16.15;;;-0.20;99.90;;;;;;4970840;28;20393;-62
2023/12/02 02:08:10;;;;;;;45.20;15.43;;;-0.20;99.90;;;;;;4971974;28;20035;-63
2023/12/02 02:10:35;;;;;;;42.00;15.45;;;-0.30;99.90;;;;;;4970752;28;20045;-62
2023/12/02 02:13:01;;;;;;;40.40;15.07;;;-0.30;99.90;;;;;;4971885;28;20077;-62
2023/12/02 02:15:27;;;;;;;38.65;14.80;;;-0.30;99.90;;;;;;4970527;28;20031;-62
2023/12/02 02:17:52;;;;;;;45.85;15.25;;;-0.30;99.90;;;;;;4971691;28;20038;-62
2023/12/02 02:20:18;;;;;;;39.53;14.30;;;-0.30;99.90;;;;;;4979910;28;20035;-62
2023/12/02 02:22:43;;;;;;;42.72;15.38;;;-0.30;99.90;;;;;;4974732;28;20921;-62
2023/12/02 02:25:09;;;;;;;40.72;14.75;;;-0.30;99.90;;;;;;4970454;28;20492;-62
2023/12/02 02:27:35;;;;;;;44.47;15.65;;;-0.30;99.90;;;;;;4970259;28;20175;-62
2023/12/02 02:30:00;;;;;;;42.45;15.32;;;-0.30;99.90;;;;;;4971160;28;20084;-62
2023/12/02 02:32:26;;;;;;;43.10;16.30;;;-0.30;99.90;;;;;;4970548;28;20349;-62
2023/12/02 02:34:52;;;;;;;44.53;16.38;;;-0.30;99.90;;;;;;4971577;28;20038;-62
2023/12/02 02:37:18;;;;;;;42.10;16.48;;;-0.30;99.90;;;;;;4970363;28;20507;-62
2023/12/02 02:39:43;;;;;;;46.08;16.25;;;-0.40;99.90;;;;;;4970182;28;20178;-62
2023/12/02 02:42:09;;;;;;;43.95;15.73;;;-0.40;99.90;;;;;;4971015;28;20030;-62
2023/12/02 02:44:36;;;;;;;46.80;15.80;;;-0.40;99.90;;;;;;4970346;28;20042;-62
2023/12/02 02:47:02;;;;;;;41.72;15.50;;;-0.40;99.90;;;;;;4970729;28;20482;-62
2023/12/02 02:49:28;;;;;;;46.20;17.67;;;-0.40;99.90;;;;;;4953042;28;20062;-62
2023/12/02 02:51:54;;;;;;;46.65;16.33;;;-0.40;99.90;;;;;;4970979;28;20046;-62
2023/12/02 02:54:19;;;;;;;46.67;16.63;;;-0.40;99.90;;;;;;4970957;28;20369;-62
2023/12/02 02:56:45;;;;;;;41.22;15.68;;;-0.40;99.90;;;;;;4969877;28;20038;-62
2023/12/02 02:59:11;;;;;;;48.97;16.95;;;-0.40;99.90;;;;;;4970983;28;20067;-62
2023/12/02 03:01:39;;;;;;;44.72;16.20;;;-0.40;99.90;;;;;;4952636;28;20042;-62
2023/12/02 03:04:05;;;;;;;46.33;16.30;;;-0.40;99.90;;;;;;4970390;28;20086;-63
2023/12/02 03:06:30;;;;;;;44.83;15.93;;;-0.50;99.90;;;;;;4969770;28;20550;-62
2023/12/02 03:08:56;;;;;;;45.47;15.88;;;-0.50;99.90;;;;;;4970172;28;20053;-62
2023/12/02 03:11:22;;;;;;;53.17;18.25;;;-0.50;99.90;;;;;;4970371;28;20499;-63
2023/12/02 03:13:47;;;;;;;43.95;16.42;;;-0.50;99.90;;;;;;4970477;28;20034;-62
2023/12/02 03:16:13;;;;;;;47.13;16.65;;;-0.50;99.90;;;;;;4970513;28;20070;-62
2023/12/02 03:18:38;;;;;;;46.28;15.48;;;-0.50;99.90;;;;;;4969730;28;20035;-62
2023/12/02 03:21:04;;;;;;;46.70;16.75;;;-0.50;99.90;;;;;;4970461;28;20031;-62
2023/12/02 03:23:30;;;;;;;49.97;17.83;;;-0.60;99.90;;;;;;4969455;28;20035;-62
2023/12/02 03:25:56;;;;;;;46.45;16.98;;;-0.60;99.90;;;;;;4973300;28;20498;-62
2023/12/02 03:28:23;;;;;;;51.03;18.15;;;-0.50;99.90;;;;;;4970260;28;20039;-62
2023/12/02 03:30:49;;;;;;;54.50;17.98;;;-0.50;99.90;;;;;;4970740;28;20053;-62
2023/12/02 03:33:14;;;;;;;48.05;17.63;;;-0.60;99.90;;;;;;4969807;28;20054;-63
2023/12/02 03:35:40;;;;;;;52.50;17.42;;;-0.50;99.90;;;;;;4976972;28;20050;-63
2023/12/02 03:38:05;;;;;;;53.25;18.60;;;-0.50;99.90;;;;;;4970591;28;20035;-62
2023/12/02 03:40:31;;;;;;;55.10;17.17;;;-0.60;99.90;;;;;;4984203;28;20390;-62
2023/12/02 03:42:57;;;;;;;51.38;18.10;;;-0.60;99.90;;;;;;4989739;28;20039;-62
2023/12/02 03:45:22;;;;;;;54.40;18.00;;;-0.60;99.90;;;;;;4986499;28;20034;-62
2023/12/02 03:47:48;;;;;;;52.40;17.80;;;-0.50;99.90;;;;;;4969593;28;20039;-63
2023/12/02 03:50:14;;;;;;;56.45;19.23;;;-0.50;99.90;;;;;;4971921;28;20510;-63
2023/12/02 03:52:39;;;;;;;55.78;18.25;;;-0.60;99.90;;;;;;4988760;28;20080;-63
2023/12/02 03:55:07;;;;;;;59.03;18.60;;;-0.50;99.90;;;;;;4989446;28;20394;-63
2023/12/02 03:57:32;;;;;;;57.70;17.58;;;-0.60;99.90;;;;;;4988646;28;20522;-63
2023/12/02 03:59:58;;;;;;;53.42;19.17;;;-0.60;99.90;;;;;;4988182;28;20027;-63
2023/12/02 04:02:24;;;;;;;54.67;18.52;;;-0.60;99.90;;;;;;4979888;28;20039;-63
2023/12/02 04:04:49;;;;;;;49.70;17.92;;;-0.50;99.90;;;;;;4963064;28;20035;-63
2023/12/02 04:07:15;;;;;;;49.53;17.92;;;-0.60;99.90;;;;;;4969632;28;20031;-62
2023/12/02 04:09:40;;;;;;;56.08;18.40;;;-0.50;99.90;;;;;;4969280;28;20061;-63
2023/12/02 04:12:06;;;;;;;58.75;18.85;;;-0.50;99.90;;;;;;4969214;28;20384;-63
2023/12/02 04:14:32;;;;;;;55.03;18.05;;;-0.50;99.90;;;;;;4968163;28;20027;-63
2023/12/02 04:16:57;;;;;;;55.28;19.67;;;-0.60;99.90;;;;;;4973107;28;20030;-63
2023/12/02 04:19:23;;;;;;;61.88;19.42;;;-0.50;99.90;;;;;;4969676;28;20115;-62
2023/12/02 04:21:49;;;;;;;59.70;18.25;;;-0.50;99.90;;;;;;4968694;28;20636;-63
2023/12/02 04:24:15;;;;;;;61.33;18.42;;;-0.50;99.90;;;;;;4969429;28;20031;-63
2023/12/02 04:26:41;;;;;;;55.17;19.15;;;-0.50;99.90;;;;;;4955679;28;20045;-62
2023/12/02 04:29:06;;;;;;;57.33;18.10;;;-0.50;99.90;;;;;;4950474;28;20539;-62
2023/12/02 04:31:32;;;;;;;59.80;19.08;;;-0.60;99.90;;;;;;4963819;28;20031;-63
2023/12/02 04:33:58;;;;;;;58.58;19.70;;;-0.60;99.90;;;;;;4951744;28;20148;-62
2023/12/02 04:36:24;;;;;;;52.40;18.77;;;-0.60;99.90;;;;;;4961067;28;20039;-62
2023/12/02 04:38:50;;;;;;;53.67;18.08;;;-0.60;99.90;;;;;;4957565;28;20110;-63
2023/12/02 04:41:16;;;;;;;56.75;18.80;;;-0.50;99.90;;;;;;4950542;29;20118;-63
2023/12/02 04:43:41;;;;;;;59.03;20.35;;;-0.60;99.90;;;;;;4957605;28;20035;-63
2023/12/02 04:46:07;;;;;;;60.10;18.95;;;-0.60;99.90;;;;;;4954526;29;20038;-62
2023/12/02 04:48:33;;;;;;;54.00;19.30;;;-0.50;99.90;;;;;;4962600;28;20034;-63
2023/12/02 04:50:59;;;;;;;63.65;20.08;;;-0.50;99.90;;;;;;4964229;28;20046;-62
2023/12/02 04:53:25;;;;;;;59.00;19.67;;;-0.50;99.90;;;;;;4973057;28;20034;-63
2023/12/02 04:55:52;;;;;;;57.47;19.17;;;-0.50;99.90;;;;;;4961269;28;20035;-63
2023/12/02 04:58:19;;;;;;;56.38;19.30;;;-0.60;99.90;;;;;;4963954;28;20374;-63
2023/12/02 05:00:44;;;;;;;56.58;18.85;;;-0.60;99.90;;;;;;4967074;28;20031;-62
2023/12/02 05:03:10;;;;;;;55.95;19.65;;;-0.60;99.90;;;;;;4971151;28;20108;-62
2023/12/02 05:05:36;;;;;;;58.45;19.20;;;-0.60;99.90;;;;;;4955016;28;20039;-63
2023/12/02 05:08:02;;;;;;;62.15;20.15;;;-0.60;99.90;;;;;;4972970;28;20082;-62
2023/12/02 05:10:28;;;;;;;68.55;20.75;;;-0.60;99.90;;;;;;4955962;28;20035;-62
2023/12/02 05:12:53;;;;;;;62.40;21.58;;;-0.60;99.90;;;;;;4953699;28;20031;-62
2023/12/02 05:15:19;;;;;;;62.35;19.88;;;-0.60;99.90;;;;;;4966115;28;20030;-63
2023/12/02 05:17:46;;;;;;;59.72;18.70;;;-0.60;99.90;;;;;;4956825;28;20487;-62
2023/12/02 05:20:13;;;;;;;56.97;19.55;;;-0.60;99.90;;;;;;4953392;29;20202;-63
2023/12/02 05:22:39;;;;;;;62.53;19.23;;;-0.60;99.90;;;;;;4952709;28;20767;-62
2023/12/02 05:25:06;;;;;;;56.05;18.75;;;-0.70;99.90;;;;;;4960811;28;20194;-63
2023/12/02 05:27:32;;;;;;;56.85;18.85;;;-0.70;99.90;;;;;;4954863;28;20108;-65
2023/12/02 05:29:58;;;;;;;59.83;18.60;;;-0.70;99.90;;;;;;4972483;28;20034;-62
2023/12/02 05:32:24;;;;;;;60.65;20.50;;;-0.70;99.90;;;;;;4972538;28;20127;-62
2023/12/02 05:34:49;;;;;;;58.50;18.10;;;-0.70;99.90;;;;;;4960261;28;20046;-63
2023/12/02 05:37:15;;;;;;;52.72;18.15;;;-0.70;99.90;;;;;;4972355;28;20027;-63
2023/12/02 05:39:41;;;;;;;50.70;17.40;;;-0.70;99.90;;;;;;4971638;28;20569;-63
2023/12/02 05:42:07;;;;;;;54.22;17.40;;;-0.70;99.90;;;;;;4972158;28;20034;-62
2023/12/02 05:44:33;;;;;;;51.90;17.38;;;-0.70;99.90;;;;;;4971780;28;20035;-65
2023/12/02 05:46:59;;;;;;;54.90;17.77;;;-0.70;99.90;;;;;;4954663;28;20531;-62
2023/12/02 05:49:24;;;;;;;51.80;17.92;;;-0.60;99.90;;;;;;4972146;28;20170;-63
2023/12/02 05:51:50;;;;;;;47.88;16.35;;;-0.70;99.90;;;;;;4971544;28;20030;-63
2023/12/02 05:54:15;;;;;;;49.28;16.55;;;-0.60;99.90;;;;;;4971639;28;20050;-63
2023/12/02 05:56:41;;;;;;;46.13;16.48;;;-0.60;99.90;;;;;;4971391;28;20050;-63
2023/12/02 05:59:07;;;;;;;44.95;16.33;;;-0.70;99.90;;;;;;4972257;28;20049;-62
2023/12/02 06:01:32;;;;;;;49.22;17.95;;;-0.80;99.90;;;;;;4970886;28;20034;-65
2023/12/02 06:03:58;;;;;;;46.10;16.33;;;-0.70;99.90;;;;;;4971890;28;20042;-62
2023/12/02 06:06:23;;;;;;;50.70;17.05;;;-0.70;99.90;;;;;;4971754;28;20034;-62
2023/12/02 06:08:49;;;;;;;46.55;16.13;;;-0.70;99.90;;;;;;4970849;28;20041;-63
2023/12/02 06:11:15;;;;;;;47.47;17.88;;;-0.70;99.90;;;;;;4937809;28;20030;-63
2023/12/02 06:13:40;;;;;;;57.05;19.60;;;-0.70;99.90;;;;;;4970333;28;20031;-63
2023/12/02 06:16:06;;;;;;;51.25;18.50;;;-0.80;99.90;;;;;;4968859;28;20846;-63
2023/12/02 06:18:32;;;;;;;49.65;16.13;;;-0.70;99.90;;;;;;4971622;28;20034;-63
2023/12/02 06:20:57;;;;;;;48.28;16.95;;;-0.80;99.90;;;;;;4973717;28;20038;-63
2023/12/02 06:23:24;;;;;;;46.70;16.90;;;-0.80;99.90;;;;;;4971036;28;20125;-63
2023/12/02 06:25:49;;;;;;;47.85;16.70;;;-0.80;99.90;;;;;;4962279;28;20625;-64
2023/12/02 06:28:15;;;;;;;46.47;16.38;;;-0.80;99.90;;;;;;4952200;28;20106;-62
2023/12/02 06:30:41;;;;;;;46.45;16.52;;;-0.70;99.90;;;;;;4953057;28;20079;-64
2023/12/02 06:33:07;;;;;;;44.58;15.30;;;-0.70;99.90;;;;;;4952786;28;20035;-62
2023/12/02 06:35:32;;;;;;;44.30;16.13;;;-0.70;99.90;;;;;;4951588;29;20023;-64
2023/12/02 06:37:58;;;;;;;38.03;14.85;;;-0.70;99.90;;;;;;4955557;28;20031;-63
2023/12/02 06:40:24;;;;;;;42.17;14.40;;;-0.90;99.90;;;;;;4952312;28;20047;-63
2023/12/02 06:42:49;;;;;;;44.45;14.45;;;-0.90;99.90;;;;;;4956132;28;20527;-65
2023/12/02 06:45:15;;;;;;;43.33;16.15;;;-0.80;99.90;;;;;;4956749;28;20034;-63
2023/12/02 06:47:40;;;;;;;40.22;14.88;;;-0.80;99.90;;;;;;4955229;28;20081;-63
2023/12/02 06:50:07;;;;;;;40.53;13.82;;;-0.80;99.90;;;;;;4963081;28;20078;-63
2023/12/02 06:52:32;;;;;;;41.10;14.98;;;-0.80;99.90;;;;;;4953223;28;20031;-62
2023/12/02 06:54:58;;;;;;;37.05;13.65;;;-0.80;99.90;;;;;;4970547;28;20690;-62
2023/12/02 06:57:24;;;;;;;37.80;14.05;;;-0.80;99.90;;;;;;4965950;28;20039;-64
2023/12/02 06:59:51;;;;;;;35.97;13.52;;;-0.80;99.90;;;;;;4966511;28;20391;-63
2023/12/02 07:02:17;;;;;;;37.42;13.77;;;-0.80;99.90;;;;;;4969577;28;20027;-62
2023/12/02 07:04:45;;;;;;;36.45;13.80;;;-0.80;99.90;;;;;;4970541;28;20026;-63
2023/12/02 07:07:11;;;;;;;39.10;13.90;;;-0.80;99.90;;;;;;4954260;28;20098;-63
2023/12/02 07:09:37;;;;;;;38.53;13.85;;;-0.80;99.90;;;;;;4950201;28;20460;-65
2023/12/02 07:12:03;;;;;;;42.08;14.40;;;-0.80;99.90;;;;;;4949621;28;20435;-63
2023/12/02 07:14:28;;;;;;;37.33;13.85;;;-0.80;99.90;;;;;;4951317;28;20094;-63
2023/12/02 07:16:54;;;;;;;40.80;13.98;;;-0.80;99.90;;;;;;4949994;28;20038;-64
2023/12/02 07:19:20;;;;;;;43.00;15.75;;;-0.80;99.90;;;;;;4951825;29;20059;-63
2023/12/02 07:21:45;;;;;;;39.17;14.30;;;-0.80;99.90;;;;;;4950659;29;20134;-63
2023/12/02 07:24:11;;;;;;;39.55;15.20;;;-0.80;99.90;;;;;;4952369;28;20039;-63
2023/12/02 07:26:36;;;;;;;39.00;14.43;;;-0.70;99.90;;;;;;4952863;28;20031;-64
2023/12/02 07:29:03;;;;;;;37.58;14.60;;;-0.80;99.90;;;;;;4970085;28;20507;-63
2023/12/02 07:31:29;;;;;;;39.28;13.75;;;-0.80;99.90;;;;;;4987264;28;20102;-63
2023/12/02 07:33:54;;;;;;;42.38;14.40;;;-0.80;99.90;;;;;;4968101;28;20066;-63
2023/12/02 07:36:20;;;;;;;40.42;13.30;;;-0.80;99.90;;;;;;4970829;28;20439;-64
2023/12/02 07:38:46;;;;;;;39.95;14.90;;;-0.80;99.90;;;;;;4979207;28;20034;-63
2023/12/02 07:41:11;;;;;;;42.63;14.90;;;-0.80;99.90;;;;;;4970238;28;20034;-63
2023/12/02 07:43:37;;;;;;;39.28;14.60;;;-0.80;99.90;;;;;;4968625;28;20069;-63
2023/12/02 07:46:03;;;;;;;38.97;13.88;;;-0.80;99.90;;;;;;4968950;28;20027;-62
2023/12/02 07:48:29;;;;;;;40.45;14.88;;;-0.80;99.90;;;;;;4969916;28;20066;-63
2023/12/02 07:50:54;;;;;;;37.95;13.85;;;-0.90;99.90;;;;;;4969431;28;20043;-63
2023/12/02 07:53:20;;;;;;;44.95;17.45;;;-0.90;99.90;;;;;;4969675;28;20031;-63
2023/12/02 07:55:46;;;;;;;35.42;13.68;;;-0.80;99.90;;;;;;4968758;28;20038;-63
2023/12/02 07:58:11;;;;;;;42.17;16.40;;;-0.80;99.90;;;;;;4970048;28;20034;-63
2023/12/02 08:00:37;;;;;;;39.30;15.68;;;-0.80;99.90;;;;;;4970093;28;20035;-63
2023/12/02 08:03:03;;;;;;;37.85;13.88;;;-0.80;99.90;;;;;;4969056;28;20137;-62
2023/12/02 08:05:29;;;;;;;39.88;15.77;;;-0.80;99.90;;;;;;4969986;28;20042;-62
2023/12/02 08:07:54;;;;;;;40.15;15.32;;;-0.80;99.90;;;;;;4969326;28;20435;-63
2023/12/02 08:10:20;;;;;;;39.80;15.15;;;-0.80;99.90;;;;;;4970322;28;20552;-63
2023/12/02 08:12:46;;;;;;;44.00;15.88;;;-0.90;99.90;;;;;;4968533;28;20392;-63
2023/12/02 08:15:12;;;;;;;46.40;17.55;;;-0.90;99.90;;;;;;4969693;28;20038;-63
2023/12/02 08:17:37;;;;;;;43.58;15.80;;;-0.90;99.90;;;;;;4968993;28;20034;-63
2023/12/02 08:20:05;;;;;;;42.70;15.20;;;-0.80;99.90;;;;;;4969148;28;20029;-63
2023/12/02 08:22:31;;;;;;;42.22;15.82;;;-0.80;99.90;;;;;;4971034;28;20495;-63
2023/12/02 08:24:57;;;;;;;44.30;14.93;;;-0.90;99.90;;;;;;4970743;28;20051;-64
2023/12/02 08:27:24;;;;;;;37.88;14.05;;;-0.90;99.90;;;;;;4976823;28;20034;-64
2023/12/02 08:29:49;;;;;;;45.55;14.93;;;-0.90;99.90;;;;;;4969052;28;20076;-63
2023/12/02 08:32:15;;;;;;;43.47;15.57;;;-0.90;99.90;;;;;;4981542;28;20101;-63
2023/12/02 08:34:41;;;;;;;40.35;13.90;;;-0.90;99.90;;;;;;4989382;28;20551;-64
2023/12/02 08:37:07;;;;;;;43.08;16.20;;;-0.90;99.90;;;;;;4988988;28;20036;-63
2023/12/02 08:39:34;;;;;;;43.55;14.45;;;-0.90;99.90;;;;;;4987655;28;20027;-63
2023/12/02 08:41:59;;;;;;;43.28;15.95;;;-0.90;99.90;;;;;;4969927;28;20047;-63
2023/12/02 08:44:25;;;;;;;47.38;15.98;;;-0.90;99.90;;;;;;4969530;28;20078;-63
2023/12/02 08:46:52;;;;;;;44.20;16.20;;;-0.90;99.90;;;;;;4975884;28;20026;-62
2023/12/02 08:49:18;;;;;;;53.35;19.55;;;-0.90;99.90;;;;;;4970065;28;20380;-62
2023/12/02 08:51:44;;;;;;;47.45;16.67;;;-0.90;99.90;;;;;;4951706;28;20054;-65
2023/12/02 08:54:10;;;;;;;44.55;16.15;;;-0.90;99.90;;;;;;4968706;28;20042;-64
2023/12/02 08:56:35;;;;;;;50.42;19.42;;;-0.90;99.90;;;;;;4980589;28;20073;-63
2023/12/02 08:59:01;;;;;;;46.15;17.08;;;-0.90;99.90;;;;;;4969249;28;20466;-63
2023/12/02 09:01:27;;;;;;;46.40;16.40;;;-0.90;99.90;;;;;;4969485;28;20105;-64
2023/12/02 09:03:53;;;;;;;42.70;16.10;;;-0.90;99.90;;;;;;4971421;28;20043;-63
2023/12/02 09:06:19;;;;;;;48.25;16.30;;;-0.90;99.90;;;;;;4969230;28;20031;-63
2023/12/02 09:08:44;;;;;;;46.38;17.17;;;-0.90;99.90;;;;;;4968924;28;20031;-65
2023/12/02 09:11:10;;;;;;;47.45;17.30;;;-0.80;99.90;;;;;;4968479;28;20066;-66
2023/12/02 09:13:46;;;;;;;46.65;16.83;;;-0.80;99.90;;;;;;4969786;28;20121;-66
2023/12/02 09:16:30;;;;;;;40.58;14.93;;;-0.70;99.90;;;;;;4969721;28;20031;-65
2023/12/02 09:18:56;;;;;;;45.65;16.23;;;-0.80;99.90;;;;;;4968826;28;20057;-63
2023/12/02 09:21:21;;;;;;;43.75;14.70;;;-0.90;99.90;;;;;;4969579;28;20468;-63
2023/12/02 09:23:51;;;;;;;40.28;14.65;;;-0.80;99.90;;;;;;4969143;28;20436;-66
2023/12/02 09:26:28;;;;;;;29.80;10.87;;;-0.90;99.90;;;;;;4969337;28;20055;-63
2023/12/02 09:28:55;;;;;;;39.05;14.07;;;-0.90;99.90;;;;;;4968849;28;20302;-65
2023/12/02 09:31:21;;;;;;;46.90;16.17;;;-0.90;99.90;;;;;;4972628;28;20030;-63
2023/12/02 09:34:02;;;;;;;45.45;14.70;;;-0.80;99.90;;;;;;4972742;28;20038;-65
2023/12/02 09:36:36;;;;;;;37.90;14.05;;;-0.90;99.90;;;;;;4972467;28;20026;-63
2023/12/02 09:39:08;;;;;;;41.15;14.77;;;-0.90;99.90;;;;;;4972188;28;20558;-64
2023/12/02 09:41:39;;;;;;;38.97;14.30;;;-0.80;99.90;;;;;;4972769;28;20085;-63
2023/12/02 09:44:20;;;;;;;47.08;15.52;;;-0.90;99.90;;;;;;4972136;28;20121;-64
2023/12/02 09:47:01;;;;;;;40.50;14.45;;;-0.90;99.90;;;;;;4972685;28;20023;-65
2023/12/02 09:50:05;;;;;;;37.45;13.52;;;-0.90;99.90;;;;;;4972782;28;20086;-63
2023/12/02 09:52:55;;;;;;;40.25;13.75;;;-0.80;99.90;;;;;;4972673;28;20037;-63
2023/12/02 09:55:21;;;;;;;;;;;-0.80;99.90;;;;;;4972950;28;20029;-64
2023/12/02 09:58:11;;;;;;;34.88;12.73;;;-0.80;99.90;;;;;;4971625;28;19918;-66
2023/12/02 10:01:05;;;;;;;40.20;13.77;;;-0.80;99.90;;;;;;4971056;28;20057;-63
2023/12/02 10:03:36;;;;;;;39.70;12.95;;;-0.80;99.90;;;;;;4971772;28;20517;-63
2023/12/02 10:06:09;;;;;;;37.63;13.85;;;-0.90;99.90;;;;;;4970990;28;20380;-63
2023/12/02 10:08:41;;;;;;;38.65;14.18;;;-0.90;99.90;;;;;;4971922;28;20494;-63
2023/12/02 10:11:43;;;;;;;42.72;16.80;;;-0.80;99.90;;;;;;4971142;28;20859;-63
2023/12/02 10:14:12;;;;;;;46.90;18.05;;;-0.90;99.90;;;;;;4957344;28;20037;-63
2023/12/02 10:16:42;;;;;;;43.87;15.60;;;-0.90;99.90;;;;;;4971928;28;20046;-63
2023/12/02 10:19:21;;;;;;;42.50;15.68;;;-0.90;99.90;;;;;;4971506;28;20262;-63
2023/12/02 10:21:53;;;;;;;44.03;16.88;;;-0.90;99.90;;;;;;4970896;28;20047;-62
2023/12/02 10:24:30;;;;;;;38.25;13.82;;;-0.90;99.90;;;;;;4981963;28;20499;-63
2023/12/02 10:27:05;;;;;;;39.63;15.20;;;-0.90;99.90;;;;;;4980392;28;20117;-63
2023/12/02 10:29:43;;;;;;;35.97;13.05;;;-0.80;99.90;;;;;;4978219;28;20463;-63
2023/12/02 10:32:31;;;;;;;118.32;37.25;;;-0.80;99.90;;;;;;4977394;28;20057;-63
2023/12/02 10:35:06;;;;;;;97.65;30.33;;;-0.80;99.90;;;;;;4977540;28;20035;-63
2023/12/02 10:37:39;;;;;;;50.53;16.15;;;-0.80;99.90;;;;;;4972073;28;20480;-63
2023/12/02 10:40:09;;;;;;;34.45;12.60;;;-0.80;99.90;;;;;;4970778;28;20030;-64
2023/12/02 10:43:04;;;;;;;35.13;12.88;;;-0.80;99.90;;;;;;4971597;28;20034;-63
2023/12/02 10:45:31;;;;;;;28.08;10.80;;;-0.80;99.90;;;;;;4971182;28;20046;-64
2023/12/02 10:47:59;;;;;;;35.35;13.43;;;-0.80;99.90;;;;;;4970720;28;20117;-65
2023/12/02 10:50:27;;;;;;;46.53;17.67;;;-0.80;99.90;;;;;;4970133;28;20035;-66
2023/12/02 10:53:03;;;;;;;36.72;13.60;;;-0.80;99.90;;;;;;4971139;28;20023;-67
2023/12/02 10:55:37;;;;;;;30.83;11.73;;;-0.80;99.90;;;;;;4974022;28;20035;-66
2023/12/02 10:58:06;;;;;;;36.90;13.90;;;-0.90;99.90;;;;;;4975834;28;20084;-65
2023/12/02 11:00:38;;;;;;;33.25;12.43;;;-0.80;99.90;;;;;;4977333;28;20034;-65
2023/12/02 11:03:27;;;;;;;38.13;14.13;;;-0.80;99.90;;;;;;4975553;28;20584;-63
2023/12/02 11:06:01;;;;;;;50.42;17.73;;;-0.80;99.90;;;;;;4978403;28;20086;-65
2023/12/02 11:08:47;;;;;;;33.83;13.23;;;-0.80;99.90;;;;;;4971513;28;20061;-64
2023/12/02 11:11:34;;;;;;;46.22;14.50;;;-0.90;99.90;;;;;;4982222;28;20527;-66
2023/12/02 11:14:01;;;;;;;83.95;25.52;;;-0.80;99.90;;;;;;4960581;28;20129;-65
2023/12/02 11:16:41;;;;;;;66.60;19.88;;;-0.80;99.90;;;;;;4970892;28;20476;-65
2023/12/02 11:19:25;;;;;;;63.88;20.33;;;-0.80;99.90;;;;;;4970749;28;20030;-65
2023/12/02 11:21:51;;;;;;;59.40;19.25;;;-0.80;99.90;;;;;;4973131;28;20061;-62
2023/12/02 11:24:42;;;;;;;35.53;14.10;;;-0.90;99.90;;;;;;4963840;28;20145;-62
2023/12/02 11:27:22;;;;;;;38.20;13.05;;;-0.90;99.90;;;;;;4955219;28;20129;-62
2023/12/02 11:30:21;;;;;;;36.03;13.00;;;-0.90;99.90;;;;;;4970960;28;20034;-62
2023/12/02 11:33:16;;;;;;;32.08;12.48;;;-0.90;99.90;;;;;;4957346;28;20031;-62
2023/12/02 11:35:56;;;;;;;29.98;10.95;;;-0.90;99.90;;;;;;4950193;29;20443;-62
2023/12/02 11:38:26;;;;;;;39.30;12.75;;;-1.00;99.90;;;;;;4951508;28;20039;-62
2023/12/02 11:41:29;;;;;;;23.30;8.48;;;-0.90;99.90;;;;;;4951345;28;20031;-64
2023/12/02 11:44:16;;;;;;;23.45;9.45;;;-0.90;99.90;;;;;;4951294;28;20038;-64
2023/12/02 11:47:13;;;;;;;20.58;8.43;;;-0.80;99.90;;;;;;4951038;28;20035;-63
2023/12/02 11:49:57;;;;;;;27.30;10.27;;;-0.80;99.90;;;;;;4951144;28;20027;-62
2023/12/02 11:52:53;;;;;;;22.25;8.93;;;-0.70;99.90;;;;;;4950679;28;20416;-63
2023/12/02 11:55:32;;;;;;;22.33;8.65;;;-0.60;99.90;;;;;;4942740;29;20043;-62
2023/12/02 11:58:07;;;;;;;23.35;9.43;;;-0.60;99.90;;;;;;4950595;29;20473;-63
2023/12/02 12:01:00;;;;;;;23.50;9.57;;;-0.60;99.90;;;;;;4951300;29;20481;-63
2023/12/02 12:03:39;;;;;;;25.33;9.07;;;-0.60;99.90;;;;;;4951152;28;20110;-63
2023/12/02 12:06:12;;;;;;;23.90;9.40;;;-0.80;99.90;;;;;;4950346;28;20062;-63
2023/12/02 12:09:07;;;;;;;31.27;11.27;;;-1.00;99.90;;;;;;4951216;29;20038;-62
2023/12/02 12:11:33;;;;;;;25.58;9.43;;;-1.10;99.90;;;;;;4951093;28;20059;-62
2023/12/02 12:14:01;;;;;;;26.58;10.20;;;-1.10;99.90;;;;;;4950449;28;20035;-65
2023/12/02 12:16:27;;;;;;;24.85;9.73;;;-1.10;99.90;;;;;;4951449;29;20027;-62
2023/12/02 12:18:53;;;;;;;30.13;10.63;;;-1.10;99.90;;;;;;4950843;29;20062;-62
2023/12/02 12:21:18;;;;;;;27.42;10.32;;;-1.10;99.90;;;;;;4948748;29;20027;-63
2023/12/02 12:23:46;;;;;;;31.25;10.68;;;-1.10;99.90;;;;;;4950911;29;20035;-63
2023/12/02 12:26:12;;;;;;;27.02;9.80;;;-1.20;99.90;;;;;;4966679;28;20133;-65
2023/12/02 12:28:39;;;;;;;28.10;11.20;;;-1.10;99.90;;;;;;4969955;28;20054;-64
2023/12/02 12:31:09;;;;;;;23.08;9.68;;;-1.00;99.90;;;;;;4969366;28;20038;-63
2023/12/02 12:33:38;;;;;;;25.80;9.25;;;-1.10;99.90;;;;;;4970018;28;20159;-64
2023/12/02 12:36:04;;;;;;;23.38;8.68;;;-1.10;99.90;;;;;;4969267;28;20097;-62